Time;durP1;ratioP1;P1;durP2;ratioP2;P2;SDS_P1;SDS_P2;PMS_P1;PMS_P2;Temp;Humidity;BMP_temperature;BMP_pressure;BME280_temperature;BME280_humidity;BME280_pressure;Samples;Min_cycle;Max_cycle;Signal;HPM_P1;HPM_P2
2022/11/16 00:01:08;;;;;;;5.17;4.00;;;;;;;8.35;100.00;94603.59;5081308;28;24889;-73
2022/11/16 00:03:35;;;;;;;8.50;4.65;;;;;;;8.32;100.00;94598.66;5087862;28;24473;-73
2022/11/16 00:06:04;;;;;;;6.82;3.92;;;;;;;8.35;100.00;94595.03;5093117;28;20763;-72
2022/11/16 00:08:33;;;;;;;8.90;4.32;;;;;;;8.32;100.00;94595.25;5079745;28;20780;-74
2022/11/16 00:11:05;;;;;;;5.55;4.18;;;;;;;8.21;100.00;94588.28;5082005;28;21137;-74
2022/11/16 00:13:32;;;;;;;7.32;3.78;;;;;;;8.28;100.00;94583.50;5075013;28;20671;-74
2022/11/16 00:15:59;;;;;;;6.17;3.90;;;;;;;8.17;100.00;94584.28;5079944;28;20822;-74
2022/11/16 00:18:27;;;;;;;5.28;3.70;;;;;;;8.13;100.00;94573.38;5085856;28;20788;-74
2022/11/16 00:20:53;;;;;;;5.28;3.70;;;;;;;8.19;100.00;94572.94;5077078;28;20816;-74
2022/11/16 00:23:20;;;;;;;5.93;3.90;;;;;;;8.21;100.00;94567.66;5073007;28;24434;-74
2022/11/16 00:25:47;;;;;;;6.72;3.55;;;;;;;8.26;100.00;94560.38;5072643;28;20775;-74
2022/11/16 00:28:14;;;;;;;4.55;3.45;;;;;;;8.24;100.00;94551.97;5075072;28;20767;-74
2022/11/16 00:30:40;;;;;;;4.93;3.58;;;;;;;8.22;100.00;94544.31;5080580;28;20779;-74
2022/11/16 00:33:08;;;;;;;5.40;4.18;;;;;;;8.13;100.00;94563.06;5088757;28;20783;-74
2022/11/16 00:35:39;;;;;;;7.82;5.97;;;;;;;8.17;100.00;94558.50;5068437;28;20861;-73
2022/11/16 00:38:06;;;;;;;7.03;4.80;;;;;;;8.20;100.00;94550.53;5080757;28;20884;-74
2022/11/16 00:40:32;;;;;;;5.93;3.63;;;;;;;8.29;100.00;94542.13;5082112;28;24793;-74
2022/11/16 00:42:59;;;;;;;6.32;3.30;;;;;;;8.22;100.00;94544.31;5076970;28;24967;-74
2022/11/16 00:45:25;;;;;;;4.55;3.30;;;;;;;8.24;100.00;94542.47;5079233;28;24438;-73
2022/11/16 00:47:52;;;;;;;4.50;3.42;;;;;;;8.27;100.00;94545.72;5075599;28;24438;-74
2022/11/16 00:50:18;;;;;;;4.30;3.78;;;;;;;8.17;100.00;94546.41;5087988;28;25006;-74
2022/11/16 00:52:46;;;;;;;6.50;5.38;;;;;;;8.13;100.00;94550.16;5090527;28;25014;-74
2022/11/16 00:55:13;;;;;;;6.15;5.13;;;;;;;8.13;100.00;94555.31;5075453;28;20780;-74
2022/11/16 00:57:39;;;;;;;9.98;7.38;;;;;;;8.12;100.00;94545.09;5078043;28;20796;-73
2022/11/16 01:00:08;;;;;;;8.98;7.07;;;;;;;8.11;100.00;94551.19;5080832;28;24793;-73
2022/11/16 01:02:34;;;;;;;5.38;4.70;;;;;;;8.08;100.00;94551.41;5089217;28;20812;-73
2022/11/16 01:05:00;;;;;;;9.73;6.57;;;;;;;8.03;100.00;94548.34;5074598;28;25007;-73
2022/11/16 01:07:27;;;;;;;5.95;4.68;;;;;;;8.05;100.00;94552.47;5063110;28;24438;-74
2022/11/16 01:09:55;;;;;;;9.05;6.55;;;;;;;8.04;100.00;94550.81;5081999;28;24991;-74
2022/11/16 01:12:20;;;;;;;6.03;4.75;;;;;;;7.97;100.00;94545.28;5084729;28;20780;-74
2022/11/16 01:14:48;;;;;;;5.13;3.47;;;;;;;7.95;100.00;94547.16;5084436;28;24437;-73
2022/11/16 01:17:15;;;;;;;3.53;3.17;;;;;;;7.90;100.00;94538.94;5082960;28;20792;-74
2022/11/16 01:19:41;;;;;;;5.07;3.63;;;;;;;7.87;100.00;94544.31;5080423;28;24458;-74
2022/11/16 01:22:08;;;;;;;4.57;3.37;;;;;;;7.87;100.00;94543.47;5067464;28;24524;-74
2022/11/16 01:24:35;;;;;;;7.43;3.63;;;;;;;7.84;100.00;94534.19;5067510;28;24473;-74
2022/11/16 01:27:02;;;;;;;5.22;3.17;;;;;;;7.82;100.00;94543.78;5084240;28;24442;-74
2022/11/16 01:29:30;;;;;;;5.65;3.30;;;;;;;7.87;100.00;94540.91;5093283;28;20763;-73
2022/11/16 01:31:57;;;;;;;4.93;3.60;;;;;;;7.85;100.00;94543.56;5076256;28;24525;-73
2022/11/16 01:34:24;;;;;;;3.45;2.90;;;;;;;7.81;100.00;94543.91;5076424;28;24427;-73
2022/11/16 01:36:51;;;;;;;4.15;3.42;;;;;;;7.81;100.00;94533.59;5078810;28;20786;-73
2022/11/16 01:39:18;;;;;;;5.45;3.38;;;;;;;7.81;100.00;94542.16;5077663;28;24457;-73
2022/11/16 01:41:44;;;;;;;5.63;3.55;;;;;;;7.79;100.00;94545.75;5072276;28;20813;-73
2022/11/16 01:47:11;;;;;;;7.32;4.20;;;;;;;7.83;100.00;94539.47;5116915;27;21542;-74
2022/11/16 01:49:41;;;;;;;5.25;4.13;;;;;;;7.72;100.00;94537.66;5116296;27;20690;-74
2022/11/16 01:52:11;;;;;;;4.95;3.72;;;;;;;7.70;100.00;94532.59;5118450;28;24457;-75
2022/11/16 01:54:41;;;;;;;8.05;3.92;;;;;;;7.72;100.00;94535.09;5114457;28;21291;-75
2022/11/16 01:57:11;;;;;;;4.88;3.97;;;;;;;7.76;100.00;94536.50;5108504;28;20763;-75
2022/11/16 01:59:39;;;;;;;8.85;3.80;;;;;;;7.74;100.00;94538.38;5114387;27;21134;-75
2022/11/16 02:02:06;;;;;;;5.53;4.07;;;;;;;7.74;100.00;94538.38;5119501;28;20757;-74
2022/11/16 02:04:33;;;;;;;4.88;3.90;;;;;;;7.70;100.00;94540.34;5117344;28;24831;-75
2022/11/16 02:07:09;;;;;;;5.38;3.88;;;;;;;7.69;100.00;94540.47;5100789;28;25002;-75
2022/11/16 02:09:57;;;;;;;4.93;3.75;;;;;;;7.73;100.00;94540.13;5100054;28;24452;-75
2022/11/16 02:12:50;;;;;;;7.47;4.03;;;;;;;7.66;100.00;94528.59;5116860;28;20858;-75
2022/11/16 02:15:26;;;;;;;6.18;4.10;;;;;;;7.71;100.00;94530.84;5115294;28;20729;-75
2022/11/16 02:18:04;;;;;;;8.85;4.30;;;;;;;7.68;100.00;94521.59;5113777;27;20763;-75
2022/11/16 02:20:58;;;;;;;6.88;4.18;;;;;;;7.73;100.00;94529.00;5113152;27;20784;-75
2022/11/16 02:24:00;;;;;;;5.90;4.30;;;;;;;7.68;100.00;94521.59;5114862;28;20657;-74
2022/11/16 02:26:51;;;;;;;8.10;4.35;;;;;;;7.69;100.00;94525.81;5119636;27;20742;-74
2022/11/16 02:29:23;;;;;;;5.63;4.15;;;;;;;7.70;100.00;94518.91;5101687;27;20655;-74
2022/11/16 02:31:57;;;;;;;4.93;4.00;;;;;;;7.72;100.00;94520.44;5098896;28;20713;-75
2022/11/16 02:34:26;;;;;;;6.10;4.20;;;;;;;7.67;100.00;94512.19;5097810;28;20649;-74
2022/11/16 02:36:56;;;;;;;5.68;4.03;;;;;;;7.70;100.00;94519.72;5101191;28;20820;-75
2022/11/16 02:39:26;;;;;;;6.25;4.30;;;;;;;7.68;100.00;94516.44;5106956;27;20807;-74
2022/11/16 02:41:55;;;;;;;5.43;3.88;;;;;;;7.70;100.00;94511.97;5125060;28;20736;-74
2022/11/16 02:44:28;;;;;;;8.00;4.07;;;;;;;7.75;100.00;94511.69;5100888;27;20868;-74
2022/11/16 02:46:58;;;;;;;5.87;4.30;;;;;;;7.70;100.00;94518.91;5128029;27;20784;-74
2022/11/16 02:49:27;;;;;;;7.05;4.28;;;;;;;7.71;100.00;94512.81;5133529;27;20684;-74
2022/11/16 02:51:55;;;;;;;6.03;4.40;;;;;;;7.70;100.00;94511.97;5140170;27;20810;-74
2022/11/16 02:54:23;;;;;;;6.65;4.18;;;;;;;7.70;100.00;94519.72;5129257;27;20813;-74
2022/11/16 02:56:54;;;;;;;6.80;4.30;;;;;;;7.75;100.00;94517.66;5122050;27;24485;-74
2022/11/16 02:59:24;;;;;;;7.57;4.10;;;;;;;7.74;100.00;94525.47;5113966;27;20758;-74
2022/11/16 03:01:57;;;;;;;6.40;5.00;;;;;;;7.70;100.00;94524.06;5117471;27;20732;-74
2022/11/16 03:04:28;;;;;;;11.98;6.10;;;;;;;7.70;100.00;94508.59;5121544;27;20676;-74
2022/11/16 03:06:56;;;;;;;15.45;8.32;;;;;;;7.70;100.00;94513.75;5126473;27;21094;-74
2022/11/16 03:09:27;;;;;;;18.92;12.20;;;;;;;7.71;100.00;94502.50;5116671;27;20889;-74
2022/11/16 03:11:58;;;;;;;24.33;13.60;;;;;;;7.78;100.00;94493.41;5117319;27;20664;-75
2022/11/16 03:14:29;;;;;;;18.13;11.00;;;;;;;7.80;100.00;94494.13;5117044;27;21069;-75
2022/11/16 03:16:57;;;;;;;13.35;8.95;;;;;;;7.78;100.00;94483.09;5108974;27;20750;-75
2022/11/16 03:19:32;;;;;;;10.23;7.50;;;;;;;7.84;100.00;94476.69;5116651;27;24803;-75
2022/11/16 03:22:06;;;;;;;8.73;5.90;;;;;;;7.92;100.00;94474.34;5108179;27;20775;-75
2022/11/16 03:24:33;;;;;;;5.95;3.47;;;;;;;7.99;100.00;94470.41;5111728;27;21007;-74
2022/11/16 03:27:05;;;;;;;3.47;2.80;;;;;;;7.99;100.00;94467.81;5116125;27;20787;-74
2022/11/16 03:29:38;;;;;;;5.82;4.82;;;;;;;8.02;100.00;94479.69;5107096;27;20668;-75
2022/11/16 03:32:11;;;;;;;7.35;3.70;;;;;;;8.08;100.00;94479.22;5114851;27;21238;-74
2022/11/16 03:34:41;;;;;;;4.65;3.55;;;;;;;8.16;100.00;94475.16;5111544;27;20648;-74
2022/11/16 03:37:09;;;;;;;4.30;3.27;;;;;;;8.15;100.00;94485.56;5117122;27;20831;-75
2022/11/16 03:39:38;;;;;;;3.97;3.42;;;;;;;8.13;100.00;94493.41;5115892;27;20805;-75
2022/11/16 03:42:12;;;;;;;5.28;2.88;;;;;;;8.14;100.00;94507.94;5109273;27;20761;-75
2022/11/16 03:44:41;;;;;;;3.20;2.90;;;;;;;8.13;100.00;94508.91;5120720;27;20841;-75
2022/11/16 03:47:08;;;;;;;3.63;2.80;;;;;;;8.06;100.00;94519.78;5115663;27;20769;-75
2022/11/16 03:49:34;;;;;;;3.90;2.65;;;;;;;8.13;100.00;94526.13;5117264;27;24436;-74
2022/11/16 03:52:01;;;;;;;2.83;2.50;;;;;;;8.12;100.00;94521.88;5111988;27;24433;-74
2022/11/16 03:54:28;;;;;;;3.95;2.53;;;;;;;8.11;100.00;94527.97;5114282;27;20768;-76
2022/11/16 03:56:54;;;;;;;3.22;2.60;;;;;;;8.09;100.00;94522.94;5120225;27;20765;-76
2022/11/16 03:59:21;;;;;;;6.40;2.63;;;;;;;8.13;100.00;94531.28;5105071;27;22253;-74
2022/11/16 04:01:48;;;;;;;3.85;2.55;;;;;;;8.15;100.00;94527.63;5122698;27;20764;-74
2022/11/16 04:26:08;;;;;;;2.05;1.25;;;;;;;8.44;100.00;94522.13;5120771;27;20781;-74
2022/11/16 04:28:34;;;;;;;2.50;1.60;;;;;;;8.41;100.00;94525.75;5122152;27;24436;-74
2022/11/16 04:39:20;;;;;;;2.73;2.20;;;;;;;8.45;100.00;94527.19;5117544;27;24531;-73
2022/11/16 04:47:15;;;;;;;3.57;1.73;;;;;;;8.46;100.00;94526.25;5120210;27;20666;-73
2022/11/16 04:49:43;;;;;;;2.25;1.10;;;;;;;8.46;100.00;94526.25;5106990;28;24434;-73
2022/11/16 04:52:09;;;;;;;1.70;1.10;;;;;;;8.51;100.00;94528.47;5115337;27;24459;-73
2022/11/16 04:54:36;;;;;;;1.38;1.25;;;;;;;8.47;100.00;94525.31;5110697;27;24426;-73
2022/11/16 04:57:02;;;;;;;2.20;1.20;;;;;;;8.41;100.00;94528.34;5118027;27;24421;-73
2022/11/16 04:59:29;;;;;;;2.80;1.48;;;;;;;8.36;100.00;94529.59;5114500;27;24436;-73
2022/11/16 05:02:07;;;;;;;2.25;1.45;;;;;;;8.37;100.00;94521.75;5117025;27;24447;-74
2022/11/16 05:04:34;;;;;;;2.05;1.30;;;;;;;8.33;100.00;94520.31;5109231;27;20808;-74
2022/11/16 05:07:02;;;;;;;3.50;1.60;;;;;;;8.27;100.00;94525.94;5114396;27;20776;-74
2022/11/16 05:09:29;;;;;;;3.47;2.13;;;;;;;8.09;100.00;94530.69;5100505;27;24428;-73
2022/11/16 05:11:55;;;;;;;3.88;2.90;;;;;;;8.04;100.00;94529.34;5121442;27;24816;-73
2022/11/16 05:14:22;;;;;;;2.40;1.40;;;;;;;7.96;100.00;94535.88;5121379;27;24977;-73
2022/11/16 05:16:48;;;;;;;1.77;1.30;;;;;;;7.99;100.00;94533.09;5117551;27;24433;-74
2022/11/16 05:21:59;;;;;;;2.38;1.75;;;;;;;7.91;100.00;94522.53;5118758;27;20802;-74
2022/11/16 05:24:36;;;;;;;2.22;1.70;;;;;;;7.89;100.00;94529.53;5111022;27;24429;-73
2022/11/16 05:27:04;;;;;;;3.95;1.80;;;;;;;7.95;100.00;94533.44;5111914;27;20873;-73
2022/11/16 05:29:30;;;;;;;2.15;1.90;;;;;;;7.88;100.00;94533.03;5120553;27;20811;-74
2022/11/16 05:31:57;;;;;;;2.85;2.00;;;;;;;7.84;100.00;94530.81;5117837;27;24475;-74
2022/11/16 05:34:24;;;;;;;3.45;1.90;;;;;;;7.91;100.00;94532.00;5105442;28;20761;-73
2022/11/16 05:36:51;;;;;;;3.15;2.30;;;;;;;7.81;100.00;94531.84;5117382;27;24422;-72
2022/11/16 05:39:18;;;;;;;7.13;4.57;;;;;;;7.73;100.00;94537.53;5120486;27;24436;-72
2022/11/16 05:41:46;;;;;;;2.67;2.08;;;;;;;7.74;100.00;94536.59;5117924;27;20813;-72
2022/11/16 05:44:13;;;;;;;3.25;2.03;;;;;;;7.78;100.00;94538.97;5116369;28;20805;-71
2022/11/16 05:46:40;;;;;;;3.38;2.53;;;;;;;7.76;100.00;94536.50;5108951;28;24462;-72
2022/11/16 05:49:07;;;;;;;2.83;2.25;;;;;;;7.79;100.00;94535.44;5123428;28;20791;-71
2022/11/16 05:51:34;;;;;;;4.20;2.40;;;;;;;7.79;100.00;94536.31;5117934;28;20774;-71
2022/11/16 05:54:01;;;;;;;2.72;2.28;;;;;;;7.81;100.00;94533.59;5125716;28;20761;-72
2022/11/16 05:56:27;;;;;;;3.33;2.53;;;;;;;7.78;100.00;94534.63;5112249;28;24430;-72
2022/11/16 05:58:55;;;;;;;2.05;1.58;;;;;;;7.79;100.00;94533.72;5124389;28;24436;-72
2022/11/16 06:01:22;;;;;;;1.60;1.45;;;;;;;7.78;100.00;94544.94;5118038;27;20802;-72
2022/11/16 06:03:49;;;;;;;1.60;1.50;;;;;;;7.72;100.00;94551.38;5123877;28;24982;-72
2022/11/16 06:06:15;;;;;;;2.50;2.25;;;;;;;7.71;100.00;94542.00;5119816;28;24460;-72
2022/11/16 06:08:42;;;;;;;2.67;2.45;;;;;;;7.70;100.00;94548.06;5116674;28;24430;-72
2022/11/16 06:11:10;;;;;;;3.60;2.70;;;;;;;7.73;100.00;94545.28;5109419;28;24434;-72
2022/11/16 06:13:37;;;;;;;5.38;3.00;;;;;;;7.72;100.00;94553.13;5122265;28;20805;-73
2022/11/16 06:16:06;;;;;;;4.03;3.33;;;;;;;7.67;100.00;94558.59;5109448;27;20777;-72
2022/11/16 06:18:36;;;;;;;6.70;3.03;;;;;;;7.67;100.00;94563.75;5114823;27;20808;-72
2022/11/16 06:21:02;;;;;;;8.27;2.15;;;;;;;7.60;100.00;94565.13;5113519;28;20774;-72
2022/11/16 06:23:29;;;;;;;4.45;2.22;;;;;;;7.66;100.00;94566.44;5120503;28;24452;-72
2022/11/16 06:25:56;;;;;;;3.45;2.50;;;;;;;7.70;100.00;94566.09;5121422;28;24448;-71
2022/11/16 06:28:23;;;;;;;7.18;3.10;;;;;;;7.64;100.00;94578.59;5117839;28;20760;-71
2022/11/16 06:30:50;;;;;;;5.88;2.75;;;;;;;7.69;100.00;94586.84;5117192;28;20764;-71
2022/11/16 06:33:18;;;;;;;2.55;2.35;;;;;;;7.72;100.00;94584.88;5108266;27;24436;-71
2022/11/16 06:35:45;;;;;;;2.10;1.60;;;;;;;7.69;100.00;94584.25;5125631;27;24425;-71
2022/11/16 06:38:17;;;;;;;2.00;1.27;;;;;;;7.69;100.00;94589.41;5106281;27;21323;-71
2022/11/16 06:40:43;;;;;;;1.60;1.48;;;;;;;7.71;100.00;94593.53;5118251;27;21360;-73
2022/11/16 06:43:10;;;;;;;2.17;1.40;;;;;;;7.74;100.00;94597.63;5108350;27;24440;-74
2022/11/16 06:45:36;;;;;;;1.63;1.30;;;;;;;7.81;100.00;94603.19;5114934;27;21136;-72
2022/11/16 06:48:03;;;;;;;2.85;1.55;;;;;;;7.83;100.00;94599.59;5109094;27;20769;-73
2022/11/16 06:50:31;;;;;;;2.25;1.60;;;;;;;7.87;100.00;94598.44;5124860;27;21107;-73
2022/11/16 06:52:59;;;;;;;1.25;1.02;;;;;;;7.88;100.00;94597.50;5120461;27;21116;-73
2022/11/16 06:55:26;;;;;;;1.92;1.38;;;;;;;7.87;100.00;94595.03;5110484;27;20805;-72
2022/11/16 06:57:52;;;;;;;1.63;1.30;;;;;;;7.86;100.00;94601.94;5122417;27;20757;-71
2022/11/16 07:00:19;;;;;;;1.73;1.40;;;;;;;7.92;100.00;94593.75;5116074;27;20779;-72
2022/11/16 07:02:46;;;;;;;3.20;1.37;;;;;;;7.80;100.00;94602.38;5118239;27;24440;-72
2022/11/16 07:05:13;;;;;;;1.80;1.45;;;;;;;7.86;100.00;94601.94;5122547;27;24430;-72
2022/11/16 07:07:40;;;;;;;2.25;1.80;;;;;;;7.87;100.00;94610.50;5125923;27;24445;-72
2022/11/16 07:10:08;;;;;;;2.60;1.20;;;;;;;7.91;100.00;94609.34;5112388;27;24441;-72
2022/11/16 07:12:34;;;;;;;4.40;2.47;;;;;;;7.91;100.00;94611.94;5126404;27;24824;-73
2022/11/16 07:15:01;;;;;;;9.07;5.05;;;;;;;7.85;100.00;94615.75;5121284;27;20777;-73
2022/11/16 07:17:27;;;;;;;4.10;3.10;;;;;;;7.88;100.00;94612.97;5127141;27;24422;-73
2022/11/16 07:19:54;;;;;;;3.30;1.98;;;;;;;8.00;100.00;94614.66;5103768;27;24449;-72
2022/11/16 07:22:20;;;;;;;8.65;1.65;;;;;;;8.02;100.00;94617.16;5125587;27;24424;-72
2022/11/16 07:24:48;;;;;;;2.08;1.40;;;;;;;8.06;100.00;94615.19;5115713;27;24808;-72
2022/11/16 07:27:15;;;;;;;3.22;1.02;;;;;;;8.09;100.00;94618.38;5109204;27;20818;-73
2022/11/16 07:29:41;;;;;;;4.70;1.77;;;;;;;7.96;100.00;94623.53;5112861;27;20766;-73
2022/11/16 07:32:08;;;;;;;3.22;1.05;;;;;;;7.91;100.00;94622.25;5107103;27;24432;-73
2022/11/16 07:34:34;;;;;;;5.50;2.05;;;;;;;7.96;100.00;94626.13;5113632;27;24931;-73
2022/11/16 07:37:01;;;;;;;6.10;1.70;;;;;;;8.06;100.00;94628.88;5116094;27;24433;-73
2022/11/16 07:39:27;;;;;;;3.17;1.60;;;;;;;8.17;100.00;94635.88;5106075;27;24792;-73
2022/11/16 07:41:55;;;;;;;6.47;4.32;;;;;;;8.25;100.00;94636.13;5104522;28;24426;-73
2022/11/16 07:44:21;;;;;;;5.80;4.00;;;;;;;8.29;100.00;94636.75;5113753;27;20771;-74
2022/11/16 07:46:48;;;;;;;3.63;2.50;;;;;;;8.28;100.00;94651.41;5116633;27;21335;-73
2022/11/16 07:49:16;;;;;;;5.30;2.40;;;;;;;8.28;100.00;94653.16;5111153;28;24436;-73
2022/11/16 07:51:44;;;;;;;3.88;1.73;;;;;;;8.29;100.00;94647.88;5093169;27;20804;-73
2022/11/16 07:54:11;;;;;;;2.28;1.13;;;;;;;8.23;100.00;94645.72;5090755;28;24422;-74
2022/11/16 07:56:38;;;;;;;4.00;1.13;;;;;;;8.25;100.00;94652.44;5091988;28;24994;-74
2022/11/16 07:59:06;;;;;;;1.77;0.73;;;;;;;8.34;100.00;94650.94;5094587;28;24464;-74
2022/11/16 08:01:32;;;;;;;3.45;0.90;;;;;;;8.45;100.00;94651.03;5090574;28;20812;-73
2022/11/16 08:04:01;;;;;;;1.77;0.90;;;;;;;8.50;100.00;94653.28;5089604;28;24967;-73
2022/11/16 08:06:29;;;;;;;1.52;0.88;;;;;;;8.62;100.00;94646.41;5112623;27;20808;-73
2022/11/16 08:08:55;;;;;;;1.80;1.00;;;;;;;8.63;100.00;94646.28;5115908;27;20818;-73
2022/11/16 08:11:22;;;;;;;2.15;0.90;;;;;;;8.65;100.00;94641.03;5118970;27;20775;-72
2022/11/16 08:13:49;;;;;;;3.80;0.90;;;;;;;8.69;100.00;94645.84;5123281;27;20769;-73
2022/11/16 08:16:18;;;;;;;2.03;1.20;;;;;;;8.66;100.00;94653.00;5117500;27;20774;-71
2022/11/16 08:18:46;;;;;;;4.75;1.00;;;;;;;8.64;100.00;94655.69;5123117;27;20761;-71
2022/11/16 08:21:14;;;;;;;1.60;0.80;;;;;;;8.69;100.00;94653.59;5120486;27;20766;-71
2022/11/16 08:23:41;;;;;;;1.30;0.83;;;;;;;8.75;100.00;94654.91;5117364;27;20821;-71
2022/11/16 08:26:09;;;;;;;1.65;1.00;;;;;;;8.85;100.00;94650.69;5117016;27;24971;-71
2022/11/16 08:28:37;;;;;;;1.60;0.90;;;;;;;8.91;100.00;94650.25;5115171;27;24460;-71
2022/11/16 08:31:08;;;;;;;1.40;0.77;;;;;;;8.92;100.00;94643.31;5112771;27;24430;-71
2022/11/16 08:33:35;;;;;;;3.13;1.23;;;;;;;8.84;100.00;94654.22;5111679;27;24425;-71
2022/11/16 08:36:04;;;;;;;3.97;1.52;;;;;;;8.84;100.00;94659.38;5121654;27;24426;-71
2022/11/16 08:38:31;;;;;;;3.58;2.13;;;;;;;8.80;100.00;94650.22;5118215;27;24425;-70
2022/11/16 08:40:57;;;;;;;8.88;5.00;;;;;;;8.74;100.00;94658.41;5115927;27;21332;-71
2022/11/16 08:43:24;;;;;;;4.75;3.03;;;;;;;8.78;100.00;94654.66;5115349;27;24428;-71
2022/11/16 08:45:52;;;;;;;5.27;2.97;;;;;;;9.02;100.00;94651.22;5121940;27;25055;-71
2022/11/16 08:48:19;;;;;;;14.65;9.05;;;;;;;9.12;100.00;94650.44;5121070;27;20815;-71
2022/11/16 08:50:47;;;;;;;19.95;9.82;;;;;;;9.08;100.00;94648.16;5122836;27;24440;-71
2022/11/16 08:53:15;;;;;;;13.47;7.50;;;;;;;9.23;100.00;94641.84;5112335;27;24514;-71
2022/11/16 08:55:41;;;;;;;6.05;3.30;;;;;;;9.42;100.00;94644.69;5117340;27;24433;-71
2022/11/16 08:58:08;;;;;;;2.90;1.60;;;;;;;9.58;100.00;94652.09;5109686;27;24479;-71
2022/11/16 09:00:34;;;;;;;4.10;2.17;;;;;;;9.70;100.00;94653.72;5123771;27;24518;-72
2022/11/16 09:03:01;;;;;;;3.60;1.90;;;;;;;9.84;100.00;94655.25;5108693;27;24519;-70
2022/11/16 09:05:27;;;;;;;5.33;3.03;;;;;;;10.07;100.00;94648.28;5125347;27;24550;-70
2022/11/16 09:07:55;;;;;;;5.00;2.57;;;;;;;10.18;100.00;94650.84;5101709;27;25076;-71
2022/11/16 09:10:24;;;;;;;8.52;2.90;;;;;;;10.25;100.00;94645.19;5124379;27;24436;-71
2022/11/16 09:12:51;;;;;;;2.20;1.35;;;;;;;10.37;100.00;94641.66;5107763;27;24533;-70
2022/11/16 09:15:19;;;;;;;4.05;2.80;;;;;;;10.65;100.00;94640.28;5126156;27;24795;-71
2022/11/16 09:17:46;;;;;;;1.52;0.77;;;;;;;10.60;100.00;94642.38;5117609;27;24429;-70
2022/11/16 09:20:12;;;;;;;3.85;0.90;;;;;;;11.01;100.00;94636.44;5110663;27;24511;-71
2022/11/16 09:22:39;;;;;;;2.30;0.90;;;;;;;11.16;100.00;94639.53;5117479;27;24434;-71
2022/11/16 09:25:09;;;;;;;2.22;0.93;;;;;;;11.36;100.00;94636.09;5122860;27;24981;-71
2022/11/16 09:27:36;;;;;;;3.38;0.70;;;;;;;11.42;100.00;94636.50;5106837;28;24556;-71
2022/11/16 09:30:04;;;;;;;0.90;0.50;;;;;;;11.12;100.00;94646.75;5124249;27;24437;-70
2022/11/16 09:32:31;;;;;;;4.00;1.10;;;;;;;10.99;100.00;94650.47;5118470;27;24481;-72
2022/11/16 09:34:57;;;;;;;4.70;2.33;;;;;;;10.76;100.00;94647.16;5125128;27;24978;-71
2022/11/16 09:37:23;;;;;;;2.10;1.00;;;;;;;10.62;100.00;94654.28;5118299;27;24422;-71
2022/11/16 09:39:51;;;;;;;3.35;0.80;;;;;;;10.80;100.00;94661.50;5124016;27;24447;-71
2022/11/16 09:42:35;;;;;;;2.33;0.68;;;;;;;11.08;100.00;94660.06;5110323;28;24445;-72
2022/11/16 09:45:07;;;;;;;2.63;0.85;;;;;;;11.31;100.00;94655.56;5114457;27;24429;-70
2022/11/16 09:47:40;;;;;;;2.97;1.00;;;;;;;11.41;100.00;94661.63;5096063;28;24540;-70
2022/11/16 09:50:17;;;;;;;4.93;1.23;;;;;;;11.62;100.00;94665.00;5096064;28;24437;-71
2022/11/16 09:52:49;;;;;;;1.90;0.77;;;;;;;11.97;100.00;94666.41;5110686;28;24432;-71
2022/11/16 09:55:24;;;;;;;1.42;0.85;;;;;;;11.86;100.00;94669.09;5098111;28;24437;-71
2022/11/16 09:57:55;;;;;;;2.58;0.70;;;;;;;11.43;100.00;94664.09;5121235;28;24425;-71
2022/11/16 10:00:23;;;;;;;1.33;0.68;;;;;;;11.33;100.00;94677.00;5105692;28;24992;-71
2022/11/16 10:03:00;;;;;;;2.30;1.00;;;;;;;11.36;100.00;94685.34;5121758;28;24425;-71
2022/11/16 10:05:32;;;;;;;1.90;0.70;;;;;;;11.45;100.00;94669.97;5118010;28;24967;-70
2022/11/16 10:08:04;;;;;;;2.70;0.90;;;;;;;11.63;100.00;94676.19;5114233;28;24516;-71
2022/11/16 10:10:37;;;;;;;5.50;1.13;;;;;;;11.62;100.00;94670.19;5113861;27;24803;-71
2022/11/16 10:13:16;;;;;;;2.63;0.65;;;;;;;11.63;100.00;94663.22;5124926;27;24536;-70
2022/11/16 10:15:53;;;;;;;1.90;0.70;;;;;;;11.32;100.00;94665.00;5117340;27;24440;-70
2022/11/16 10:18:33;;;;;;;1.70;0.80;;;;;;;11.33;100.00;94657.09;5120111;27;24481;-71
2022/11/16 10:21:14;;;;;;;2.60;0.90;;;;;;;11.39;100.00;94661.75;5124124;27;24429;-71
2022/11/16 10:23:56;;;;;;;2.80;0.73;;;;;;;11.78;100.00;94661.94;5104575;27;24445;-71
2022/11/16 10:26:30;;;;;;;2.05;0.77;;;;;;;11.63;100.00;94655.44;5097515;28;24425;-71
2022/11/16 10:29:10;;;;;;;2.63;0.73;;;;;;;11.81;100.00;94646.09;5104671;28;24457;-71
2022/11/16 10:32:02;;;;;;;3.88;1.15;;;;;;;11.84;100.00;94642.47;5098100;28;24434;-70
2022/11/16 10:34:36;;;;;;;2.17;0.87;;;;;;;11.66;100.00;94641.41;5106886;28;24472;-71
2022/11/16 10:37:07;;;;;;;3.25;1.08;;;;;;;11.76;100.00;94645.69;5104449;28;24515;-72
2022/11/16 10:39:39;;;;;;;4.70;1.00;;;;;;;11.68;100.00;94644.69;5117787;27;24929;-72
2022/11/16 10:42:12;;;;;;;3.47;0.90;;;;;;;11.95;100.00;94636.38;5118882;27;24440;-72
2022/11/16 10:44:43;;;;;;;2.20;0.60;;;;;;;11.82;100.00;94629.59;5112382;28;24437;-71
2022/11/16 10:47:18;;;;;;;2.75;1.33;;;;;;;11.61;100.00;94628.84;5104345;27;24792;-70
2022/11/16 10:49:55;;;;;;;5.70;1.00;;;;;;;11.49;100.00;94638.47;5124698;27;24435;-70
2022/11/16 10:52:22;;;;;;;2.05;0.77;;;;;;;11.68;100.00;94622.19;5113912;27;24983;-71
2022/11/16 10:54:49;;;;;;;4.50;0.90;;;;;;;11.52;100.00;94627.03;5116807;27;25010;-70
2022/11/16 10:57:16;;;;;;;3.42;0.98;;;;;;;11.22;100.00;94628.66;5103436;28;24437;-70
2022/11/16 10:59:46;;;;;;;1.58;0.85;;;;;;;11.32;100.00;94634.72;5119312;27;25002;-70
2022/11/16 11:02:34;;;;;;;4.10;0.90;;;;;;;11.11;100.00;94626.94;5122448;27;24440;-69
2022/11/16 11:05:02;;;;;;;1.33;0.63;;;;;;;11.05;100.00;94619.69;5112495;27;24434;-71
2022/11/16 11:07:32;;;;;;;1.90;0.90;;;;;;;11.02;100.00;94619.94;5113983;27;24479;-70
2022/11/16 11:09:58;;;;;;;1.95;0.60;;;;;;;10.94;100.00;94619.75;5124594;27;24443;-70
2022/11/16 11:12:38;;;;;;;2.80;1.15;;;;;;;10.94;100.00;94613.75;5123204;27;24783;-70
2022/11/16 11:15:21;;;;;;;2.67;0.90;;;;;;;11.00;100.00;94608.06;5111974;27;24440;-71
2022/11/16 11:17:49;;;;;;;2.92;0.98;;;;;;;10.97;100.00;94608.31;5118635;27;24460;-71
2022/11/16 11:20:22;;;;;;;3.03;1.15;;;;;;;11.03;100.00;94613.00;5111360;27;24982;-71
2022/11/16 11:22:53;;;;;;;3.53;1.25;;;;;;;11.02;100.00;94614.75;5125115;27;24493;-71
2022/11/16 11:25:23;;;;;;;3.53;0.98;;;;;;;11.06;100.00;94620.50;5114330;27;24520;-72
2022/11/16 11:27:50;;;;;;;2.47;1.00;;;;;;;11.08;100.00;94618.59;5123226;27;25040;-70
2022/11/16 11:30:21;;;;;;;4.10;0.88;;;;;;;11.12;100.00;94617.41;5120299;27;24436;-70
2022/11/16 11:32:48;;;;;;;2.40;0.93;;;;;;;11.17;100.00;94609.25;5123322;27;24799;-70
2022/11/16 11:35:23;;;;;;;8.52;1.08;;;;;;;11.14;100.00;94607.75;5120991;27;24444;-70
2022/11/16 11:37:52;;;;;;;1.35;0.70;;;;;;;11.17;100.00;94606.66;5113027;27;24432;-70
2022/11/16 11:40:23;;;;;;;2.85;0.93;;;;;;;11.22;100.00;94607.91;5121159;27;24440;-70
2022/11/16 11:42:56;;;;;;;3.22;1.10;;;;;;;11.17;100.00;94606.66;5125185;27;24425;-70
2022/11/16 11:45:31;;;;;;;2.22;1.10;;;;;;;11.17;100.00;94615.25;5105766;27;24966;-70
2022/11/16 11:48:01;;;;;;;3.50;1.80;;;;;;;11.23;100.00;94601.78;5119391;27;24452;-70
2022/11/16 11:50:44;;;;;;;5.25;0.80;;;;;;;11.22;100.00;94610.50;5108903;27;25001;-70
2022/11/16 11:53:28;;;;;;;1.85;0.80;;;;;;;11.19;100.00;94602.16;5123526;27;24993;-70
2022/11/16 11:55:57;;;;;;;3.38;1.00;;;;;;;11.19;100.00;94608.16;5108467;27;24792;-69
2022/11/16 11:58:30;;;;;;;2.15;0.77;;;;;;;11.17;100.00;94599.72;5119511;27;24475;-70
2022/11/16 12:01:14;;;;;;;3.22;0.80;;;;;;;11.15;100.00;94611.97;5119973;27;24437;-70
2022/11/16 12:03:55;;;;;;;2.53;0.80;;;;;;;11.24;100.00;94610.41;5110736;27;24417;-70
2022/11/16 12:06:31;;;;;;;2.50;1.10;;;;;;;11.20;100.00;94602.06;5113161;27;24435;-70
2022/11/16 12:09:14;;;;;;;2.15;0.73;;;;;;;11.18;100.00;94606.53;5118000;27;25041;-70
2022/11/16 12:11:56;;;;;;;3.45;0.80;;;;;;;11.03;100.00;94603.44;5102122;27;24870;-70
2022/11/16 12:14:39;;;;;;;2.77;0.80;;;;;;;10.96;100.00;94601.50;5117589;27;24491;-70
2022/11/16 12:17:14;;;;;;;1.95;0.82;;;;;;;10.95;100.00;94602.44;5105574;27;24440;-70
2022/11/16 12:20:04;;;;;;;3.00;0.80;;;;;;;10.88;100.00;94589.19;5111933;27;24991;-70
2022/11/16 12:22:50;;;;;;;9.00;0.87;;;;;;;10.98;100.00;94597.03;5112152;27;24489;-70
2022/11/16 12:25:23;;;;;;;4.13;1.47;;;;;;;11.00;100.00;94598.50;5122880;27;24429;-71